sensor_id;sensor_type;location;lat;lon;timestamp;temperature;humidity
28247;DHT22;34504;53.178;22.058;2022-10-16T00:01:43;14.30;96.30
28247;DHT22;34504;53.178;22.058;2022-10-16T00:04:11;14.30;96.30
28247;DHT22;34504;53.178;22.058;2022-10-16T00:06:40;14.30;96.40
28247;DHT22;34504;53.178;22.058;2022-10-16T00:09:07;14.30;96.40
28247;DHT22;34504;53.178;22.058;2022-10-16T00:11:38;14.30;96.50
28247;DHT22;34504;53.178;22.058;2022-10-16T00:14:11;14.30;96.50
28247;DHT22;34504;53.178;22.058;2022-10-16T00:16:41;14.20;96.50
28247;DHT22;34504;53.178;22.058;2022-10-16T00:19:11;14.20;96.60
28247;DHT22;34504;53.178;22.058;2022-10-16T00:21:40;14.20;96.70
28247;DHT22;34504;53.178;22.058;2022-10-16T00:24:26;14.30;96.70
28247;DHT22;34504;53.178;22.058;2022-10-16T00:26:54;14.30;96.80
28247;DHT22;34504;53.178;22.058;2022-10-16T00:29:22;14.30;96.80
28247;DHT22;34504;53.178;22.058;2022-10-16T00:31:50;14.20;96.80
28247;DHT22;34504;53.178;22.058;2022-10-16T00:34:18;14.30;96.80
28247;DHT22;34504;53.178;22.058;2022-10-16T00:36:46;14.30;96.80
28247;DHT22;34504;53.178;22.058;2022-10-16T00:39:14;14.30;96.80
28247;DHT22;34504;53.178;22.058;2022-10-16T00:41:42;14.30;96.80
28247;DHT22;34504;53.178;22.058;2022-10-16T00:47:33;14.30;96.80
28247;DHT22;34504;53.178;22.058;2022-10-16T00:50:13;14.30;96.80
28247;DHT22;34504;53.178;22.058;2022-10-16T00:52:46;14.30;96.80
28247;DHT22;34504;53.178;22.058;2022-10-16T00:55:18;14.30;96.80
28247;DHT22;34504;53.178;22.058;2022-10-16T00:57:48;14.30;96.80
28247;DHT22;34504;53.178;22.058;2022-10-16T01:00:23;14.30;96.80
28247;DHT22;34504;53.178;22.058;2022-10-16T01:02:53;14.30;96.90
28247;DHT22;34504;53.178;22.058;2022-10-16T01:05:23;14.30;96.90
28247;DHT22;34504;53.178;22.058;2022-10-16T01:08:22;14.30;96.90
28247;DHT22;34504;53.178;22.058;2022-10-16T01:10:57;14.30;96.90
28247;DHT22;34504;53.178;22.058;2022-10-16T01:13:40;14.30;96.90
28247;DHT22;34504;53.178;22.058;2022-10-16T01:16:18;14.40;97.00
28247;DHT22;34504;53.178;22.058;2022-10-16T01:19:00;14.40;97.20
28247;DHT22;34504;53.178;22.058;2022-10-16T01:21:37;14.40;97.00
28247;DHT22;34504;53.178;22.058;2022-10-16T01:35:30;14.30;97.10
28247;DHT22;34504;53.178;22.058;2022-10-16T01:38:23;14.40;97.10
28247;DHT22;34504;53.178;22.058;2022-10-16T01:41:04;14.30;97.20
28247;DHT22;34504;53.178;22.058;2022-10-16T01:43:38;14.30;97.30
28247;DHT22;34504;53.178;22.058;2022-10-16T01:46:08;14.30;97.40
28247;DHT22;34504;53.178;22.058;2022-10-16T01:48:43;14.30;97.60
28247;DHT22;34504;53.178;22.058;2022-10-16T01:51:14;14.30;97.90
28247;DHT22;34504;53.178;22.058;2022-10-16T01:53:47;14.30;98.10
28247;DHT22;34504;53.178;22.058;2022-10-16T01:56:17;14.30;98.30
28247;DHT22;34504;53.178;22.058;2022-10-16T01:58:49;14.30;98.40
28247;DHT22;34504;53.178;22.058;2022-10-16T02:01:23;14.20;98.60
28247;DHT22;34504;53.178;22.058;2022-10-16T02:03:59;14.30;98.90
28247;DHT22;34504;53.178;22.058;2022-10-16T02:06:28;14.20;98.90
28247;DHT22;34504;53.178;22.058;2022-10-16T02:08:57;14.20;99.00
28247;DHT22;34504;53.178;22.058;2022-10-16T02:11:25;14.20;99.00
28247;DHT22;34504;53.178;22.058;2022-10-16T02:13:59;14.20;99.00
28247;DHT22;34504;53.178;22.058;2022-10-16T02:16:37;14.20;99.10
28247;DHT22;34504;53.178;22.058;2022-10-16T02:19:15;14.20;99.20
28247;DHT22;34504;53.178;22.058;2022-10-16T02:22:02;14.20;99.20
28247;DHT22;34504;53.178;22.058;2022-10-16T02:30:32;14.20;99.30
28247;DHT22;34504;53.178;22.058;2022-10-16T02:33:03;14.20;99.30
28247;DHT22;34504;53.178;22.058;2022-10-16T02:35:33;14.20;99.40
28247;DHT22;34504;53.178;22.058;2022-10-16T02:38:05;14.20;99.40
28247;DHT22;34504;53.178;22.058;2022-10-16T02:40:34;14.20;99.50
28247;DHT22;34504;53.178;22.058;2022-10-16T02:43:04;14.20;99.50
28247;DHT22;34504;53.178;22.058;2022-10-16T02:45:35;14.20;99.50
28247;DHT22;34504;53.178;22.058;2022-10-16T02:48:05;14.10;99.50
28247;DHT22;34504;53.178;22.058;2022-10-16T02:50:33;14.10;99.50
28247;DHT22;34504;53.178;22.058;2022-10-16T02:53:02;14.10;99.50
28247;DHT22;34504;53.178;22.058;2022-10-16T02:55:30;14.10;99.40
28247;DHT22;34504;53.178;22.058;2022-10-16T02:57:58;14.10;99.40
28247;DHT22;34504;53.178;22.058;2022-10-16T03:00:26;14.10;99.40
28247;DHT22;34504;53.178;22.058;2022-10-16T03:02:54;14.10;99.50
28247;DHT22;34504;53.178;22.058;2022-10-16T03:05:21;14.20;99.50
28247;DHT22;34504;53.178;22.058;2022-10-16T03:07:50;14.20;99.50
28247;DHT22;34504;53.178;22.058;2022-10-16T03:10:20;14.20;99.40
28247;DHT22;34504;53.178;22.058;2022-10-16T03:12:51;14.10;99.40
28247;DHT22;34504;53.178;22.058;2022-10-16T03:15:18;14.10;99.40
28247;DHT22;34504;53.178;22.058;2022-10-16T03:17:46;14.10;99.50
28247;DHT22;34504;53.178;22.058;2022-10-16T03:20:14;14.20;99.50
28247;DHT22;34504;53.178;22.058;2022-10-16T03:22:47;14.10;99.50
28247;DHT22;34504;53.178;22.058;2022-10-16T03:25:15;14.20;99.50
28247;DHT22;34504;53.178;22.058;2022-10-16T03:27:45;14.10;99.50
28247;DHT22;34504;53.178;22.058;2022-10-16T03:30:13;14.20;99.50
28247;DHT22;34504;53.178;22.058;2022-10-16T03:32:43;14.10;99.40
28247;DHT22;34504;53.178;22.058;2022-10-16T03:35:11;14.20;99.50
28247;DHT22;34504;53.178;22.058;2022-10-16T03:37:39;14.20;99.50
28247;DHT22;34504;53.178;22.058;2022-10-16T03:40:07;14.20;99.50
28247;DHT22;34504;53.178;22.058;2022-10-16T03:42:35;14.20;99.50
28247;DHT22;34504;53.178;22.058;2022-10-16T03:45:08;14.20;99.50
28247;DHT22;34504;53.178;22.058;2022-10-16T03:47:40;14.20;99.50
28247;DHT22;34504;53.178;22.058;2022-10-16T03:50:11;14.20;99.40
28247;DHT22;34504;53.178;22.058;2022-10-16T03:52:39;14.20;99.70
28247;DHT22;34504;53.178;22.058;2022-10-16T03:55:07;14.20;99.40
28247;DHT22;34504;53.178;22.058;2022-10-16T03:57:38;14.20;99.40
28247;DHT22;34504;53.178;22.058;2022-10-16T04:00:06;14.20;99.50
28247;DHT22;34504;53.178;22.058;2022-10-16T04:02:38;14.10;99.50
28247;DHT22;34504;53.178;22.058;2022-10-16T04:05:11;14.10;99.40
28247;DHT22;34504;53.178;22.058;2022-10-16T04:07:42;14.10;99.40
28247;DHT22;34504;53.178;22.058;2022-10-16T04:10:12;14.20;99.40
28247;DHT22;34504;53.178;22.058;2022-10-16T04:12:42;14.20;99.50
28247;DHT22;34504;53.178;22.058;2022-10-16T04:15:15;14.20;99.40
28247;DHT22;34504;53.178;22.058;2022-10-16T04:17:45;14.20;99.40
28247;DHT22;34504;53.178;22.058;2022-10-16T04:20:16;14.20;99.40
28247;DHT22;34504;53.178;22.058;2022-10-16T04:22:44;14.20;99.40
28247;DHT22;34504;53.178;22.058;2022-10-16T04:25:12;14.20;99.40
28247;DHT22;34504;53.178;22.058;2022-10-16T04:27:40;14.20;99.30
28247;DHT22;34504;53.178;22.058;2022-10-16T04:30:15;14.20;99.30
28247;DHT22;34504;53.178;22.058;2022-10-16T04:32:48;14.20;99.30
28247;DHT22;34504;53.178;22.058;2022-10-16T04:35:20;14.20;99.30
28247;DHT22;34504;53.178;22.058;2022-10-16T04:37:48;14.20;99.50
28247;DHT22;34504;53.178;22.058;2022-10-16T04:40:18;14.20;99.20
28247;DHT22;34504;53.178;22.058;2022-10-16T04:42:47;14.20;99.20
28247;DHT22;34504;53.178;22.058;2022-10-16T04:45:17;14.20;99.10
28247;DHT22;34504;53.178;22.058;2022-10-16T04:47:45;14.20;99.10
28247;DHT22;34504;53.178;22.058;2022-10-16T04:50:13;14.20;99.20
28247;DHT22;34504;53.178;22.058;2022-10-16T04:52:58;14.20;99.20
28247;DHT22;34504;53.178;22.058;2022-10-16T04:55:26;14.20;99.10
28247;DHT22;34504;53.178;22.058;2022-10-16T04:57:57;14.20;99.10
28247;DHT22;34504;53.178;22.058;2022-10-16T05:00:25;14.10;99.00
28247;DHT22;34504;53.178;22.058;2022-10-16T05:02:58;14.10;98.90
28247;DHT22;34504;53.178;22.058;2022-10-16T05:05:31;14.10;98.90
28247;DHT22;34504;53.178;22.058;2022-10-16T05:08:03;14.10;98.90
28247;DHT22;34504;53.178;22.058;2022-10-16T05:10:31;14.10;98.90
28247;DHT22;34504;53.178;22.058;2022-10-16T05:13:02;14.10;98.80
28247;DHT22;34504;53.178;22.058;2022-10-16T05:15:30;14.10;99.20
28247;DHT22;34504;53.178;22.058;2022-10-16T05:18:01;14.10;99.00
28247;DHT22;34504;53.178;22.058;2022-10-16T05:20:34;14.20;99.10
28247;DHT22;34504;53.178;22.058;2022-10-16T05:23:02;14.10;99.10
28247;DHT22;34504;53.178;22.058;2022-10-16T05:25:34;14.10;99.20
28247;DHT22;34504;53.178;22.058;2022-10-16T05:28:06;14.10;99.20
28247;DHT22;34504;53.178;22.058;2022-10-16T05:30:33;14.10;99.20
28247;DHT22;34504;53.178;22.058;2022-10-16T05:33:02;14.10;99.20
28247;DHT22;34504;53.178;22.058;2022-10-16T05:35:30;14.10;99.10
28247;DHT22;34504;53.178;22.058;2022-10-16T05:37:58;14.10;99.20
28247;DHT22;34504;53.178;22.058;2022-10-16T05:40:28;14.10;99.20
28247;DHT22;34504;53.178;22.058;2022-10-16T05:42:56;14.10;99.20
28247;DHT22;34504;53.178;22.058;2022-10-16T05:45:24;14.20;99.20
28247;DHT22;34504;53.178;22.058;2022-10-16T05:47:52;14.20;99.30
28247;DHT22;34504;53.178;22.058;2022-10-16T05:50:27;14.20;99.30
28247;DHT22;34504;53.178;22.058;2022-10-16T05:52:55;14.20;99.40
28247;DHT22;34504;53.178;22.058;2022-10-16T05:55:24;14.20;99.60
28247;DHT22;34504;53.178;22.058;2022-10-16T05:57:54;14.20;99.30
28247;DHT22;34504;53.178;22.058;2022-10-16T06:00:22;14.20;99.20
28247;DHT22;34504;53.178;22.058;2022-10-16T06:02:50;14.30;99.20
28247;DHT22;34504;53.178;22.058;2022-10-16T06:05:29;14.20;99.20
28247;DHT22;34504;53.178;22.058;2022-10-16T06:08:00;14.30;99.20
28247;DHT22;34504;53.178;22.058;2022-10-16T06:10:29;14.30;99.10
28247;DHT22;34504;53.178;22.058;2022-10-16T06:13:04;14.30;99.10
28247;DHT22;34504;53.178;22.058;2022-10-16T06:15:34;14.30;98.90
28247;DHT22;34504;53.178;22.058;2022-10-16T06:18:02;14.30;98.90
28247;DHT22;34504;53.178;22.058;2022-10-16T06:20:30;14.40;98.90
28247;DHT22;34504;53.178;22.058;2022-10-16T06:22:58;14.40;98.80
28247;DHT22;34504;53.178;22.058;2022-10-16T06:25:26;14.40;98.80
28247;DHT22;34504;53.178;22.058;2022-10-16T06:27:54;14.40;98.70
28247;DHT22;34504;53.178;22.058;2022-10-16T06:30:25;14.40;98.70
28247;DHT22;34504;53.178;22.058;2022-10-16T06:32:55;14.50;98.70
28247;DHT22;34504;53.178;22.058;2022-10-16T06:35:26;14.50;98.80
28247;DHT22;34504;53.178;22.058;2022-10-16T06:37:54;14.50;98.80
28247;DHT22;34504;53.178;22.058;2022-10-16T06:40:22;14.50;98.80
28247;DHT22;34504;53.178;22.058;2022-10-16T06:42:50;14.50;99.00
28247;DHT22;34504;53.178;22.058;2022-10-16T06:45:21;14.60;98.70
28247;DHT22;34504;53.178;22.058;2022-10-16T06:47:52;14.70;98.60
28247;DHT22;34504;53.178;22.058;2022-10-16T06:50:22;14.70;98.60
28247;DHT22;34504;53.178;22.058;2022-10-16T06:52:50;14.70;98.50
28247;DHT22;34504;53.178;22.058;2022-10-16T06:55:18;14.70;98.40
28247;DHT22;34504;53.178;22.058;2022-10-16T06:57:54;14.70;98.30
28247;DHT22;34504;53.178;22.058;2022-10-16T07:00:22;14.80;98.30
28247;DHT22;34504;53.178;22.058;2022-10-16T07:02:51;14.80;98.20
28247;DHT22;34504;53.178;22.058;2022-10-16T07:05:19;14.90;98.10
28247;DHT22;34504;53.178;22.058;2022-10-16T07:07:47;14.90;98.10
28247;DHT22;34504;53.178;22.058;2022-10-16T07:10:14;14.90;98.00
28247;DHT22;34504;53.178;22.058;2022-10-16T07:12:42;15.00;98.00
28247;DHT22;34504;53.178;22.058;2022-10-16T07:15:12;15.00;98.00
28247;DHT22;34504;53.178;22.058;2022-10-16T07:17:40;15.10;97.90
28247;DHT22;34504;53.178;22.058;2022-10-16T07:20:11;15.20;97.80
28247;DHT22;34504;53.178;22.058;2022-10-16T07:22:39;15.20;97.60
28247;DHT22;34504;53.178;22.058;2022-10-16T07:25:11;15.30;97.60
28247;DHT22;34504;53.178;22.058;2022-10-16T07:27:39;15.40;97.50
28247;DHT22;34504;53.178;22.058;2022-10-16T07:30:08;15.40;97.40
28247;DHT22;34504;53.178;22.058;2022-10-16T07:32:36;15.50;97.20
28247;DHT22;34504;53.178;22.058;2022-10-16T07:35:07;15.50;97.10
28247;DHT22;34504;53.178;22.058;2022-10-16T07:37:35;15.60;97.10
28247;DHT22;34504;53.178;22.058;2022-10-16T07:40:06;15.60;97.10
28247;DHT22;34504;53.178;22.058;2022-10-16T07:42:37;15.60;96.90
28247;DHT22;34504;53.178;22.058;2022-10-16T07:45:05;15.70;96.80
28247;DHT22;34504;53.178;22.058;2022-10-16T07:47:34;15.80;96.80
28247;DHT22;34504;53.178;22.058;2022-10-16T07:50:09;15.90;96.70
28247;DHT22;34504;53.178;22.058;2022-10-16T07:52:48;15.90;96.50
28247;DHT22;34504;53.178;22.058;2022-10-16T07:55:16;16.00;96.40
28247;DHT22;34504;53.178;22.058;2022-10-16T07:57:45;16.00;96.40
28247;DHT22;34504;53.178;22.058;2022-10-16T08:00:14;16.10;96.50
28247;DHT22;34504;53.178;22.058;2022-10-16T08:02:42;16.10;96.30
28247;DHT22;34504;53.178;22.058;2022-10-16T08:05:12;16.20;96.30
28247;DHT22;34504;53.178;22.058;2022-10-16T08:07:41;16.20;96.00
28247;DHT22;34504;53.178;22.058;2022-10-16T08:10:19;16.30;96.00
28247;DHT22;34504;53.178;22.058;2022-10-16T08:12:51;16.30;96.00
28247;DHT22;34504;53.178;22.058;2022-10-16T08:15:19;16.30;95.90
28247;DHT22;34504;53.178;22.058;2022-10-16T08:18:09;16.40;95.80
28247;DHT22;34504;53.178;22.058;2022-10-16T08:20:43;16.40;95.70
28247;DHT22;34504;53.178;22.058;2022-10-16T08:23:14;16.50;95.80
28247;DHT22;34504;53.178;22.058;2022-10-16T08:25:47;16.50;96.00
28247;DHT22;34504;53.178;22.058;2022-10-16T08:28:15;16.50;95.80
28247;DHT22;34504;53.178;22.058;2022-10-16T08:30:47;16.60;95.90
28247;DHT22;34504;53.178;22.058;2022-10-16T08:33:15;16.60;95.80
28247;DHT22;34504;53.178;22.058;2022-10-16T08:35:51;16.60;95.70
28247;DHT22;34504;53.178;22.058;2022-10-16T08:38:20;16.70;95.50
28247;DHT22;34504;53.178;22.058;2022-10-16T08:40:50;16.70;95.60
28247;DHT22;34504;53.178;22.058;2022-10-16T08:46:19;16.70;95.70
28247;DHT22;34504;53.178;22.058;2022-10-16T08:48:59;16.70;95.50
28247;DHT22;34504;53.178;22.058;2022-10-16T08:51:35;16.80;95.50
28247;DHT22;34504;53.178;22.058;2022-10-16T08:54:31;16.80;95.60
28247;DHT22;34504;53.178;22.058;2022-10-16T08:57:11;16.90;95.60
28247;DHT22;34504;53.178;22.058;2022-10-16T08:59:39;16.90;95.50
28247;DHT22;34504;53.178;22.058;2022-10-16T09:07:35;17.00;95.50
28247;DHT22;34504;53.178;22.058;2022-10-16T09:12:53;17.10;95.20
28247;DHT22;34504;53.178;22.058;2022-10-16T09:15:35;17.10;95.20
28247;DHT22;34504;53.178;22.058;2022-10-16T09:18:40;17.20;95.20
28247;DHT22;34504;53.178;22.058;2022-10-16T09:21:19;17.30;95.20
28247;DHT22;34504;53.178;22.058;2022-10-16T09:23:49;17.40;95.10
28247;DHT22;34504;53.178;22.058;2022-10-16T09:26:20;17.50;95.00
28247;DHT22;34504;53.178;22.058;2022-10-16T09:28:52;17.60;94.90
28247;DHT22;34504;53.178;22.058;2022-10-16T09:31:22;17.70;95.00
28247;DHT22;34504;53.178;22.058;2022-10-16T09:33:55;17.80;94.90
28247;DHT22;34504;53.178;22.058;2022-10-16T09:36:24;18.00;94.90
28247;DHT22;34504;53.178;22.058;2022-10-16T09:39:04;18.10;94.40
28247;DHT22;34504;53.178;22.058;2022-10-16T09:41:37;18.30;94.20
28247;DHT22;34504;53.178;22.058;2022-10-16T09:44:27;18.40;94.20
28247;DHT22;34504;53.178;22.058;2022-10-16T09:47:16;18.40;93.70
28247;DHT22;34504;53.178;22.058;2022-10-16T09:52:30;18.60;93.40
28247;DHT22;34504;53.178;22.058;2022-10-16T09:55:13;18.60;93.50
28247;DHT22;34504;53.178;22.058;2022-10-16T09:57:53;18.70;93.20
28247;DHT22;34504;53.178;22.058;2022-10-16T10:00:25;18.80;93.20
28247;DHT22;34504;53.178;22.058;2022-10-16T10:02:56;18.80;93.10
28247;DHT22;34504;53.178;22.058;2022-10-16T10:05:27;18.80;93.00
28247;DHT22;34504;53.178;22.058;2022-10-16T10:08:02;18.90;93.00
28247;DHT22;34504;53.178;22.058;2022-10-16T10:10:39;18.90;92.70
28247;DHT22;34504;53.178;22.058;2022-10-16T10:13:24;18.80;92.80
28247;DHT22;34504;53.178;22.058;2022-10-16T10:15:55;18.80;92.80
28247;DHT22;34504;53.178;22.058;2022-10-16T10:18:23;18.80;92.80
28247;DHT22;34504;53.178;22.058;2022-10-16T10:21:02;18.90;92.90
28247;DHT22;34504;53.178;22.058;2022-10-16T10:23:33;18.90;92.80
28247;DHT22;34504;53.178;22.058;2022-10-16T10:26:10;18.80;92.80
28247;DHT22;34504;53.178;22.058;2022-10-16T10:29:06;18.80;92.80
28247;DHT22;34504;53.178;22.058;2022-10-16T10:32:16;18.80;92.40
28247;DHT22;34504;53.178;22.058;2022-10-16T10:43:50;18.90;92.30
28247;DHT22;34504;53.178;22.058;2022-10-16T10:46:55;18.90;92.40
28247;DHT22;34504;53.178;22.058;2022-10-16T10:54:37;18.90;92.80
28247;DHT22;34504;53.178;22.058;2022-10-16T10:57:22;18.90;92.30
28247;DHT22;34504;53.178;22.058;2022-10-16T11:00:12;18.90;92.80
28247;DHT22;34504;53.178;22.058;2022-10-16T11:08:35;19.00;92.60
28247;DHT22;34504;53.178;22.058;2022-10-16T11:13:55;18.90;92.60
28247;DHT22;34504;53.178;22.058;2022-10-16T11:16:58;18.90;92.60
28247;DHT22;34504;53.178;22.058;2022-10-16T11:19:41;18.90;92.20
28247;DHT22;34504;53.178;22.058;2022-10-16T11:22:21;18.90;92.30
28247;DHT22;34504;53.178;22.058;2022-10-16T11:28:20;18.90;92.40
28247;DHT22;34504;53.178;22.058;2022-10-16T11:31:08;18.90;92.40
28247;DHT22;34504;53.178;22.058;2022-10-16T11:33:47;19.00;92.50
28247;DHT22;34504;53.178;22.058;2022-10-16T11:36:40;19.00;92.60
28247;DHT22;34504;53.178;22.058;2022-10-16T11:39:28;19.00;92.70
28247;DHT22;34504;53.178;22.058;2022-10-16T11:48:48;19.10;92.80
28247;DHT22;34504;53.178;22.058;2022-10-16T11:56:17;19.10;92.30
28247;DHT22;34504;53.178;22.058;2022-10-16T11:58:51;19.10;92.40
28247;DHT22;34504;53.178;22.058;2022-10-16T12:07:03;19.00;92.00
28247;DHT22;34504;53.178;22.058;2022-10-16T12:09:37;19.00;92.20
28247;DHT22;34504;53.178;22.058;2022-10-16T12:15:15;19.00;91.80
28247;DHT22;34504;53.178;22.058;2022-10-16T12:18:01;19.00;92.10
28247;DHT22;34504;53.178;22.058;2022-10-16T12:20:33;18.90;92.10
28247;DHT22;34504;53.178;22.058;2022-10-16T12:23:07;18.90;92.10
28247;DHT22;34504;53.178;22.058;2022-10-16T12:25:57;18.90;92.20
28247;DHT22;34504;53.178;22.058;2022-10-16T12:28:27;18.90;92.10
28247;DHT22;34504;53.178;22.058;2022-10-16T12:31:02;18.80;92.20
28247;DHT22;34504;53.178;22.058;2022-10-16T12:33:33;18.90;92.30
28247;DHT22;34504;53.178;22.058;2022-10-16T12:36:04;18.90;92.30
28247;DHT22;34504;53.178;22.058;2022-10-16T12:38:47;18.80;92.40
28247;DHT22;34504;53.178;22.058;2022-10-16T12:41:34;18.80;92.20
28247;DHT22;34504;53.178;22.058;2022-10-16T12:44:03;18.80;92.20
28247;DHT22;34504;53.178;22.058;2022-10-16T12:51:41;18.90;92.40
28247;DHT22;34504;53.178;22.058;2022-10-16T13:00:03;19.00;92.30
28247;DHT22;34504;53.178;22.058;2022-10-16T13:08:10;19.00;92.30
28247;DHT22;34504;53.178;22.058;2022-10-16T13:10:45;19.00;92.30
28247;DHT22;34504;53.178;22.058;2022-10-16T13:19:00;19.20;92.30
28247;DHT22;34504;53.178;22.058;2022-10-16T13:30:10;19.30;91.90
28247;DHT22;34504;53.178;22.058;2022-10-16T13:32:39;19.30;91.90
28247;DHT22;34504;53.178;22.058;2022-10-16T13:37:48;19.30;91.70
28247;DHT22;34504;53.178;22.058;2022-10-16T13:40:22;19.30;91.60
28247;DHT22;34504;53.178;22.058;2022-10-16T13:42:51;19.30;91.90
28247;DHT22;34504;53.178;22.058;2022-10-16T13:45:23;19.20;92.00
28247;DHT22;34504;53.178;22.058;2022-10-16T13:48:05;19.20;92.00
28247;DHT22;34504;53.178;22.058;2022-10-16T13:50:33;19.20;91.90
28247;DHT22;34504;53.178;22.058;2022-10-16T13:53:09;19.20;91.90
28247;DHT22;34504;53.178;22.058;2022-10-16T13:55:40;19.10;91.70
28247;DHT22;34504;53.178;22.058;2022-10-16T13:58:12;19.10;91.90
28247;DHT22;34504;53.178;22.058;2022-10-16T14:00:57;19.10;92.00
28247;DHT22;34504;53.178;22.058;2022-10-16T14:03:26;19.00;92.00
28247;DHT22;34504;53.178;22.058;2022-10-16T14:05:59;19.00;92.20
28247;DHT22;34504;53.178;22.058;2022-10-16T14:08:29;19.00;92.20
28247;DHT22;34504;53.178;22.058;2022-10-16T14:10:59;19.00;92.30
28247;DHT22;34504;53.178;22.058;2022-10-16T14:13:38;18.90;92.30
28247;DHT22;34504;53.178;22.058;2022-10-16T14:16:09;18.90;92.40
28247;DHT22;34504;53.178;22.058;2022-10-16T14:18:38;18.90;92.50
28247;DHT22;34504;53.178;22.058;2022-10-16T14:21:12;18.90;92.60
28247;DHT22;34504;53.178;22.058;2022-10-16T14:23:42;18.80;92.50
28247;DHT22;34504;53.178;22.058;2022-10-16T14:28:41;18.80;92.80
28247;DHT22;34504;53.178;22.058;2022-10-16T14:33:55;18.70;92.80
28247;DHT22;34504;53.178;22.058;2022-10-16T14:36:25;18.80;93.00
28247;DHT22;34504;53.178;22.058;2022-10-16T14:39:00;18.70;93.00
28247;DHT22;34504;53.178;22.058;2022-10-16T14:41:32;18.70;92.90
28247;DHT22;34504;53.178;22.058;2022-10-16T14:44:03;18.70;92.90
28247;DHT22;34504;53.178;22.058;2022-10-16T14:49:19;18.60;93.00
28247;DHT22;34504;53.178;22.058;2022-10-16T14:51:50;18.60;93.00
28247;DHT22;34504;53.178;22.058;2022-10-16T14:54:19;18.50;93.10
28247;DHT22;34504;53.178;22.058;2022-10-16T14:56:56;18.50;93.10
28247;DHT22;34504;53.178;22.058;2022-10-16T14:59:29;18.50;93.20
28247;DHT22;34504;53.178;22.058;2022-10-16T15:01:58;18.40;93.30
28247;DHT22;34504;53.178;22.058;2022-10-16T15:04:26;18.40;93.30
28247;DHT22;34504;53.178;22.058;2022-10-16T15:06:54;18.30;93.30
28247;DHT22;34504;53.178;22.058;2022-10-16T15:09:24;18.30;93.40
28247;DHT22;34504;53.178;22.058;2022-10-16T15:11:52;18.30;93.50
28247;DHT22;34504;53.178;22.058;2022-10-16T15:14:20;18.30;93.50
28247;DHT22;34504;53.178;22.058;2022-10-16T15:16:48;18.20;93.50
28247;DHT22;34504;53.178;22.058;2022-10-16T15:19:16;18.20;93.50
28247;DHT22;34504;53.178;22.058;2022-10-16T15:21:44;18.20;93.60
28247;DHT22;34504;53.178;22.058;2022-10-16T15:24:13;18.20;93.60
28247;DHT22;34504;53.178;22.058;2022-10-16T15:26:50;18.20;93.60
28247;DHT22;34504;53.178;22.058;2022-10-16T15:29:18;18.20;93.70
28247;DHT22;34504;53.178;22.058;2022-10-16T15:31:46;18.10;93.70
28247;DHT22;34504;53.178;22.058;2022-10-16T15:34:16;18.10;93.70
28247;DHT22;34504;53.178;22.058;2022-10-16T15:36:45;18.10;93.70
28247;DHT22;34504;53.178;22.058;2022-10-16T15:39:14;18.10;93.70
28247;DHT22;34504;53.178;22.058;2022-10-16T15:41:45;18.10;93.80
28247;DHT22;34504;53.178;22.058;2022-10-16T15:44:18;18.00;93.80
28247;DHT22;34504;53.178;22.058;2022-10-16T15:46:46;18.00;93.80
28247;DHT22;34504;53.178;22.058;2022-10-16T15:49:14;18.00;93.90
28247;DHT22;34504;53.178;22.058;2022-10-16T15:51:45;18.00;93.90
28247;DHT22;34504;53.178;22.058;2022-10-16T15:54:13;18.00;93.90
28247;DHT22;34504;53.178;22.058;2022-10-16T15:56:41;17.90;93.90
28247;DHT22;34504;53.178;22.058;2022-10-16T15:59:09;17.90;94.00
28247;DHT22;34504;53.178;22.058;2022-10-16T16:01:38;17.90;94.00
28247;DHT22;34504;53.178;22.058;2022-10-16T16:04:05;17.90;94.10
28247;DHT22;34504;53.178;22.058;2022-10-16T16:06:46;17.90;94.10
28247;DHT22;34504;53.178;22.058;2022-10-16T16:09:17;17.90;94.20
28247;DHT22;34504;53.178;22.058;2022-10-16T16:11:45;17.80;94.20
28247;DHT22;34504;53.178;22.058;2022-10-16T16:14:14;17.80;94.20
28247;DHT22;34504;53.178;22.058;2022-10-16T16:16:43;17.90;94.30
28247;DHT22;34504;53.178;22.058;2022-10-16T16:19:11;17.80;94.30
28247;DHT22;34504;53.178;22.058;2022-10-16T16:21:39;17.80;94.30
28247;DHT22;34504;53.178;22.058;2022-10-16T16:24:06;17.80;94.30
28247;DHT22;34504;53.178;22.058;2022-10-16T16:26:36;17.80;94.40
28247;DHT22;34504;53.178;22.058;2022-10-16T16:29:07;17.80;94.40
28247;DHT22;34504;53.178;22.058;2022-10-16T16:31:36;17.80;94.50
28247;DHT22;34504;53.178;22.058;2022-10-16T16:34:04;17.80;94.50
28247;DHT22;34504;53.178;22.058;2022-10-16T16:36:35;17.70;94.50
28247;DHT22;34504;53.178;22.058;2022-10-16T16:39:03;17.70;94.60
28247;DHT22;34504;53.178;22.058;2022-10-16T16:41:31;17.70;94.60
28247;DHT22;34504;53.178;22.058;2022-10-16T16:44:05;17.70;94.70
28247;DHT22;34504;53.178;22.058;2022-10-16T16:46:34;17.70;94.80
28247;DHT22;34504;53.178;22.058;2022-10-16T16:49:02;17.70;94.80
28247;DHT22;34504;53.178;22.058;2022-10-16T16:51:31;17.70;94.90
28247;DHT22;34504;53.178;22.058;2022-10-16T16:54:06;17.70;94.90
28247;DHT22;34504;53.178;22.058;2022-10-16T16:56:35;17.70;95.00
28247;DHT22;34504;53.178;22.058;2022-10-16T16:59:03;17.60;95.00
28247;DHT22;34504;53.178;22.058;2022-10-16T17:01:31;17.60;95.10
28247;DHT22;34504;53.178;22.058;2022-10-16T17:03:59;17.60;95.10
28247;DHT22;34504;53.178;22.058;2022-10-16T17:06:29;17.60;95.10
28247;DHT22;34504;53.178;22.058;2022-10-16T17:08:58;17.60;95.20
28247;DHT22;34504;53.178;22.058;2022-10-16T17:11:26;17.60;95.20
28247;DHT22;34504;53.178;22.058;2022-10-16T17:13:57;17.60;95.30
28247;DHT22;34504;53.178;22.058;2022-10-16T17:16:32;17.60;95.30
28247;DHT22;34504;53.178;22.058;2022-10-16T17:19:11;17.60;95.40
28247;DHT22;34504;53.178;22.058;2022-10-16T17:21:39;17.50;95.40
28247;DHT22;34504;53.178;22.058;2022-10-16T17:24:07;17.50;95.40
28247;DHT22;34504;53.178;22.058;2022-10-16T17:26:36;17.50;95.40
28247;DHT22;34504;53.178;22.058;2022-10-16T17:29:05;17.50;95.50
28247;DHT22;34504;53.178;22.058;2022-10-16T17:31:35;17.50;95.50
28247;DHT22;34504;53.178;22.058;2022-10-16T17:34:05;17.50;95.50
28247;DHT22;34504;53.178;22.058;2022-10-16T17:36:35;17.40;95.60
28247;DHT22;34504;53.178;22.058;2022-10-16T17:39:06;17.40;95.60
28247;DHT22;34504;53.178;22.058;2022-10-16T17:41:36;17.40;95.70
28247;DHT22;34504;53.178;22.058;2022-10-16T17:44:04;17.40;95.80
28247;DHT22;34504;53.178;22.058;2022-10-16T17:46:33;17.40;95.80
28247;DHT22;34504;53.178;22.058;2022-10-16T17:49:08;17.40;95.80